createdAt,value
2022-11-29T00:01:41.703Z,48.08
2022-11-29T00:04:10.592Z,47.47
2022-11-29T00:06:39.888Z,41.40
2022-11-29T00:09:12.262Z,46.95
2022-11-29T00:12:00.736Z,37.25
2022-11-29T00:14:29.471Z,36.08
2022-11-29T00:17:02.592Z,32.10
2022-11-29T00:19:32.850Z,36.85
2022-11-29T00:22:02.237Z,36.60
2022-11-29T00:24:32.769Z,34.47
2022-11-29T00:27:01.527Z,32.97
2022-11-29T00:29:30.273Z,33.95
2022-11-29T00:31:58.813Z,36.97
2022-11-29T00:34:26.668Z,35.67
2022-11-29T00:36:54.893Z,40.97
2022-11-29T00:39:22.673Z,41.13
2022-11-29T00:41:50.811Z,39.90
2022-11-29T00:44:20.496Z,35.95
2022-11-29T00:46:49.549Z,33.35
2022-11-29T00:49:18.307Z,38.30
2022-11-29T00:51:46.987Z,37.22
2022-11-29T00:54:14.759Z,36.63
2022-11-29T00:56:43.165Z,42.60
2022-11-29T00:59:10.816Z,37.25
2022-11-29T01:01:39.212Z,40.40
2022-11-29T01:04:07.281Z,40.50
2022-11-29T01:06:35.399Z,33.70
2022-11-29T01:09:03.090Z,35.42
2022-11-29T01:11:31.281Z,37.97
2022-11-29T01:14:01.784Z,39.42
2022-11-29T01:16:31.080Z,40.35
2022-11-29T01:19:02.232Z,41.65
2022-11-29T01:21:30.982Z,32.13
2022-11-29T01:23:59.601Z,42.03
2022-11-29T01:26:29.935Z,47.75
2022-11-29T01:28:59.066Z,39.60
2022-11-29T01:31:30.525Z,39.42
2022-11-29T01:34:01.201Z,45.97
2022-11-29T01:36:29.746Z,33.03
2022-11-29T01:38:59.809Z,40.22
2022-11-29T01:41:31.287Z,40.03
2022-11-29T01:44:28.759Z,45.97
2022-11-29T01:46:58.358Z,42.13
2022-11-29T01:49:44.533Z,39.08
2022-11-29T01:52:22.516Z,39.38
2022-11-29T01:54:55.034Z,40.70
2022-11-29T01:57:23.817Z,45.67
2022-11-29T01:59:58.380Z,45.38
2022-11-29T02:02:35.925Z,46.28
2022-11-29T02:05:05.357Z,45.40
2022-11-29T02:07:33.687Z,49.60
2022-11-29T02:10:02.847Z,54.15
2022-11-29T02:13:05.187Z,46.38
2022-11-29T02:15:37.108Z,47.17
2022-11-29T02:18:08.417Z,47.50
2022-11-29T02:20:57.618Z,48.33
2022-11-29T02:23:39.618Z,50.85
2022-11-29T02:26:42.767Z,54.80
2022-11-29T02:29:35.422Z,53.67
2022-11-29T02:32:36.692Z,50.65
2022-11-29T02:35:32.548Z,57.50
2022-11-29T02:38:18.943Z,53.35
2022-11-29T02:41:12.046Z,61.47
2022-11-29T02:44:12.574Z,49.17
2022-11-29T02:46:49.581Z,50.60
2022-11-29T02:49:41.867Z,45.75
2022-11-29T02:52:21.032Z,44.75
2022-11-29T02:55:16.035Z,40.53
2022-11-29T02:57:49.711Z,37.97
2022-11-29T03:00:21.107Z,39.00
2022-11-29T03:02:52.406Z,41.30
2022-11-29T03:05:45.075Z,40.95
2022-11-29T03:08:43.251Z,37.65
2022-11-29T03:11:29.454Z,36.15
2022-11-29T03:14:26.231Z,36.60
2022-11-29T03:17:24.021Z,38.25
2022-11-29T03:20:20.046Z,36.17
2022-11-29T03:23:06.678Z,33.00
2022-11-29T03:25:40.518Z,34.67
2022-11-29T03:28:16.086Z,35.42
2022-11-29T03:30:53.079Z,34.03
2022-11-29T03:33:38.411Z,34.97
2022-11-29T03:36:16.690Z,35.58
2022-11-29T03:38:47.461Z,33.90
2022-11-29T03:41:18.403Z,29.75
2022-11-29T03:44:03.379Z,33.95
2022-11-29T03:47:06.571Z,25.83
2022-11-29T03:49:49.205Z,28.13
2022-11-29T03:52:28.964Z,31.45
2022-11-29T03:55:15.026Z,28.08
2022-11-29T03:58:37.475Z,28.25
2022-11-29T04:01:05.458Z,28.67
2022-11-29T04:03:52.027Z,28.80
2022-11-29T04:06:51.534Z,27.88
2022-11-29T04:09:42.715Z,29.20
2022-11-29T04:12:32.524Z,28.10
2022-11-29T04:15:37.629Z,34.88
2022-11-29T04:18:43.891Z,31.77
2022-11-29T04:21:30.497Z,40.85
2022-11-29T04:24:10.047Z,36.72
2022-11-29T04:26:43.650Z,32.35
2022-11-29T04:29:52.562Z,37.70
2022-11-29T04:32:48.226Z,40.22
2022-11-29T04:35:37.329Z,159.48
2022-11-29T04:38:26.530Z,79.13
2022-11-29T04:40:57.452Z,41.90
2022-11-29T04:43:38.041Z,35.05
2022-11-29T04:46:37.881Z,39.20
2022-11-29T04:49:11.763Z,38.67
2022-11-29T04:51:54.473Z,48.13
2022-11-29T04:54:25.398Z,59.90
2022-11-29T04:57:14.249Z,45.70
2022-11-29T04:59:53.707Z,32.72
2022-11-29T05:02:54.747Z,37.17
2022-11-29T05:05:31.924Z,65.45
2022-11-29T05:08:08.923Z,98.45
2022-11-29T05:10:58.793Z,81.85
2022-11-29T05:13:35.856Z,44.28
2022-11-29T05:16:13.795Z,36.08
2022-11-29T05:19:23.074Z,34.72
2022-11-29T05:21:56.989Z,32.92
2022-11-29T05:24:53.509Z,30.30
2022-11-29T05:27:39.844Z,30.52
2022-11-29T05:30:17.022Z,41.00
2022-11-29T05:33:03.633Z,32.70
2022-11-29T05:35:54.071Z,42.00
2022-11-29T05:38:35.513Z,59.00
2022-11-29T05:41:12.170Z,41.47
2022-11-29T05:44:07.830Z,42.38
2022-11-29T05:46:50.619Z,46.30
2022-11-29T05:49:42.828Z,59.78
2022-11-29T05:52:24.980Z,80.90
2022-11-29T05:55:07.256Z,56.85
2022-11-29T05:57:42.909Z,60.53
2022-11-29T06:00:13.196Z,105.57
2022-11-29T06:02:55.043Z,129.13
2022-11-29T06:05:50.645Z,135.15
2022-11-29T06:08:34.961Z,112.40
2022-11-29T06:11:47.636Z,144.23
2022-11-29T06:14:20.993Z,105.75
2022-11-29T06:17:02.996Z,80.88
2022-11-29T06:19:44.810Z,86.97
2022-11-29T06:22:27.806Z,72.53
2022-11-29T06:25:31.140Z,57.20
2022-11-29T06:28:30.523Z,63.47
2022-11-29T06:31:05.427Z,65.75
2022-11-29T06:33:48.792Z,71.22
2022-11-29T06:36:36.374Z,94.60
2022-11-29T06:39:05.294Z,85.45
2022-11-29T06:41:33.263Z,69.95
2022-11-29T06:44:01.876Z,70.78
2022-11-29T06:46:57.331Z,73.10
2022-11-29T06:49:31.460Z,68.38
2022-11-29T06:51:59.134Z,76.25
2022-11-29T06:54:42.251Z,68.18
2022-11-29T06:57:34.020Z,60.92
2022-11-29T07:00:17.334Z,61.33
2022-11-29T07:03:07.605Z,60.42
2022-11-29T07:05:36.691Z,50.58
2022-11-29T07:08:14.571Z,51.78
2022-11-29T07:10:44.101Z,68.80
2022-11-29T07:13:14.703Z,54.53
2022-11-29T07:16:02.875Z,61.28
2022-11-29T07:18:40.854Z,55.25
2022-11-29T07:21:22.708Z,57.42
2022-11-29T07:24:02.585Z,49.03
2022-11-29T07:26:40.809Z,53.92
2022-11-29T07:29:27.736Z,61.97
2022-11-29T07:32:07.663Z,55.30
2022-11-29T07:34:50.849Z,55.38
2022-11-29T07:37:46.772Z,54.78
2022-11-29T07:40:23.438Z,65.15
2022-11-29T07:43:16.905Z,59.97
2022-11-29T07:45:46.058Z,65.20
2022-11-29T07:48:14.162Z,52.53
2022-11-29T07:50:42.081Z,56.70
2022-11-29T07:53:20.267Z,49.80
2022-11-29T07:55:49.135Z,45.30
2022-11-29T07:58:18.620Z,62.05
2022-11-29T08:00:46.783Z,50.57
2022-11-29T08:03:15.027Z,54.97
2022-11-29T08:05:47.627Z,61.53
2022-11-29T08:08:16.361Z,54.97
2022-11-29T08:10:44.080Z,98.75
2022-11-29T08:13:12.226Z,94.23
2022-11-29T08:15:45.840Z,202.52
2022-11-29T08:18:15.393Z,160.73
2022-11-29T08:20:43.895Z,83.40
2022-11-29T08:23:13.187Z,74.15
2022-11-29T08:25:41.092Z,47.60
2022-11-29T08:28:09.958Z,87.20
2022-11-29T08:30:38.046Z,51.85
2022-11-29T08:33:06.519Z,51.67
2022-11-29T08:35:35.150Z,64.63
2022-11-29T08:38:04.123Z,58.70
2022-11-29T08:40:32.045Z,54.15
2022-11-29T08:43:00.457Z,54.33
2022-11-29T08:45:28.633Z,37.63
2022-11-29T08:47:56.885Z,40.13
2022-11-29T08:50:26.693Z,69.27
2022-11-29T08:53:25.316Z,62.72
2022-11-29T08:56:00.417Z,68.28
2022-11-29T08:58:28.877Z,96.25
2022-11-29T09:00:57.977Z,36.83
2022-11-29T09:03:45.193Z,38.83
2022-11-29T09:06:15.625Z,69.15
2022-11-29T09:08:45.221Z,48.92
2022-11-29T09:11:20.108Z,109.60
2022-11-29T09:13:53.962Z,52.92
2022-11-29T09:16:25.571Z,37.97
2022-11-29T09:18:57.794Z,40.35
2022-11-29T09:21:27.185Z,45.55
2022-11-29T09:23:59.483Z,28.65
2022-11-29T09:26:30.443Z,38.35
2022-11-29T09:29:01.531Z,51.97
2022-11-29T09:31:31.231Z,79.75
2022-11-29T09:34:01.798Z,72.72
2022-11-29T09:36:30.919Z,63.60
2022-11-29T09:39:01.015Z,37.63
2022-11-29T09:41:28.837Z,53.03
2022-11-29T09:44:17.509Z,106.88
2022-11-29T09:47:00.761Z,62.90
2022-11-29T09:50:00.598Z,145.27
2022-11-29T09:52:59.557Z,58.00
2022-11-29T09:55:30.574Z,30.93
2022-11-29T09:58:01.335Z,32.00
2022-11-29T10:00:31.292Z,30.15
2022-11-29T10:03:04.606Z,30.63
2022-11-29T10:05:50.854Z,24.42
2022-11-29T10:08:28.019Z,33.20
2022-11-29T10:11:12.278Z,27.60
2022-11-29T10:13:46.279Z,31.38
2022-11-29T10:16:19.769Z,25.33
2022-11-29T10:19:16.313Z,23.92
2022-11-29T10:21:50.518Z,41.97
2022-11-29T10:24:23.328Z,20.20
2022-11-29T10:26:51.678Z,28.55
2022-11-29T10:29:19.934Z,39.53
2022-11-29T10:31:49.752Z,24.30
2022-11-29T10:34:20.911Z,24.00
2022-11-29T10:37:01.677Z,29.00
2022-11-29T10:39:48.033Z,66.05
2022-11-29T10:42:40.886Z,24.50
2022-11-29T10:45:39.196Z,22.95
2022-11-29T10:48:14.158Z,38.30
2022-11-29T10:50:46.802Z,34.97
2022-11-29T10:53:25.799Z,23.80
2022-11-29T10:55:57.860Z,22.92
2022-11-29T10:58:32.379Z,23.02
2022-11-29T11:01:01.809Z,24.60
2022-11-29T11:03:39.040Z,24.33
2022-11-29T11:06:15.204Z,23.40
2022-11-29T11:09:11.374Z,31.27
2022-11-29T11:11:39.696Z,22.17
2022-11-29T11:14:22.385Z,20.67
2022-11-29T11:16:50.540Z,20.15
2022-11-29T11:19:34.752Z,29.55
2022-11-29T11:22:04.166Z,19.88
2022-11-29T11:24:35.651Z,26.05
2022-11-29T11:27:04.331Z,30.30
2022-11-29T11:29:42.553Z,18.52
2022-11-29T11:32:18.856Z,24.60
2022-11-29T11:35:02.969Z,37.65
2022-11-29T11:37:33.528Z,36.53
2022-11-29T11:40:26.684Z,30.60
2022-11-29T11:42:58.055Z,17.38
2022-11-29T11:45:33.062Z,16.98
2022-11-29T11:48:05.480Z,20.08
2022-11-29T11:50:41.148Z,21.27
2022-11-29T11:53:18.587Z,16.33
2022-11-29T11:56:00.551Z,18.42
2022-11-29T11:58:32.629Z,46.60
2022-11-29T12:01:13.863Z,35.25
2022-11-29T12:03:51.383Z,49.88
2022-11-29T12:06:38.148Z,21.73
2022-11-29T12:09:16.816Z,67.57
2022-11-29T12:12:06.662Z,34.03
2022-11-29T12:14:40.065Z,29.23
2022-11-29T12:17:31.614Z,26.67
2022-11-29T12:20:14.114Z,32.87
2022-11-29T12:22:54.314Z,29.20
2022-11-29T12:25:27.317Z,25.15
2022-11-29T12:27:55.540Z,28.67
2022-11-29T12:30:23.670Z,30.75
2022-11-29T12:33:09.390Z,28.37
2022-11-29T12:35:44.895Z,25.65
2022-11-29T12:38:53.951Z,28.92
2022-11-29T12:41:41.911Z,24.65
2022-11-29T12:44:30.940Z,15.60
2022-11-29T12:47:38.404Z,33.20
2022-11-29T12:50:15.461Z,17.90
2022-11-29T12:53:14.583Z,23.55
2022-11-29T12:56:00.579Z,20.52
2022-11-29T12:58:45.608Z,30.30
2022-11-29T13:01:41.933Z,39.27
2022-11-29T13:04:47.957Z,24.80
2022-11-29T13:07:22.301Z,20.35
2022-11-29T13:10:13.639Z,21.40
2022-11-29T13:12:51.789Z,55.75
2022-11-29T13:15:23.871Z,92.73
2022-11-29T13:18:18.869Z,28.48
2022-11-29T13:20:56.328Z,51.03
2022-11-29T13:24:07.198Z,111.38
2022-11-29T13:26:30.890Z,30.60
2022-11-29T13:28:59.794Z,29.17
2022-11-29T13:31:28.221Z,22.83
2022-11-29T13:33:59.847Z,52.10
2022-11-29T13:36:46.131Z,30.77
2022-11-29T13:39:39.147Z,27.95
2022-11-29T13:42:14.060Z,28.73
2022-11-29T13:44:56.759Z,27.60
2022-11-29T13:47:25.031Z,28.63
2022-11-29T13:49:59.432Z,23.30
2022-11-29T13:52:48.264Z,25.23
2022-11-29T13:55:29.291Z,25.67
2022-11-29T13:58:23.421Z,22.60
2022-11-29T14:00:52.573Z,22.27
2022-11-29T14:03:32.317Z,23.30
2022-11-29T14:06:22.221Z,22.95
2022-11-29T14:09:17.682Z,28.37
2022-11-29T14:11:43.881Z,36.65
2022-11-29T14:14:29.528Z,52.47
2022-11-29T14:17:04.915Z,65.00
2022-11-29T14:19:34.953Z,27.05
2022-11-29T14:22:03.245Z,33.30
2022-11-29T14:24:36.469Z,29.20
2022-11-29T14:27:10.513Z,90.75
2022-11-29T14:29:50.417Z,156.77
2022-11-29T14:32:46.117Z,253.20
2022-11-29T14:35:22.401Z,69.97
2022-11-29T14:37:59.919Z,178.52
2022-11-29T14:40:42.704Z,73.78
2022-11-29T14:43:26.283Z,144.27
2022-11-29T14:46:12.178Z,215.57
2022-11-29T14:48:47.207Z,182.77
2022-11-29T14:51:18.126Z,95.38
2022-11-29T14:53:49.358Z,40.13
2022-11-29T14:56:29.356Z,37.75
2022-11-29T14:59:34.698Z,34.28
2022-11-29T15:02:25.563Z,26.27
2022-11-29T15:04:57.106Z,37.00
2022-11-29T15:07:30.823Z,32.58
2022-11-29T15:10:02.252Z,28.50
2022-11-29T15:12:40.346Z,24.77
2022-11-29T15:16:07.409Z,25.13
2022-11-29T15:19:04.720Z,27.75
2022-11-29T15:21:54.437Z,42.45
2022-11-29T15:24:28.166Z,30.73
2022-11-29T15:26:58.956Z,74.13
2022-11-29T15:29:28.714Z,252.32
2022-11-29T15:32:06.259Z,78.13
2022-11-29T15:34:50.750Z,194.75
2022-11-29T15:37:40.573Z,105.05
2022-11-29T15:40:14.442Z,50.92
2022-11-29T15:42:53.931Z,40.23
2022-11-29T15:45:28.305Z,35.85
2022-11-29T15:48:12.739Z,39.80
2022-11-29T15:50:46.889Z,40.97
2022-11-29T15:53:24.690Z,44.95
2022-11-29T15:55:56.104Z,40.40
2022-11-29T15:58:28.172Z,47.47
2022-11-29T16:00:58.690Z,39.45
2022-11-29T16:03:31.045Z,46.63
2022-11-29T16:06:23.709Z,47.80
2022-11-29T16:08:53.252Z,45.67
2022-11-29T16:11:25.376Z,44.00
2022-11-29T16:14:11.989Z,54.00
2022-11-29T16:16:41.713Z,61.97
2022-11-29T16:19:31.510Z,44.13
2022-11-29T16:22:11.339Z,40.13
2022-11-29T16:25:01.471Z,44.95
2022-11-29T16:27:32.976Z,39.45
2022-11-29T16:30:02.699Z,43.65
2022-11-29T16:32:32.735Z,41.13
2022-11-29T16:35:28.545Z,40.13
2022-11-29T16:37:56.610Z,39.35
2022-11-29T16:40:31.515Z,57.65
2022-11-29T16:43:24.405Z,43.95
2022-11-29T16:46:26.367Z,54.42
2022-11-29T16:48:56.548Z,61.10
2022-11-29T16:51:37.949Z,63.80
2022-11-29T16:54:26.390Z,66.28
2022-11-29T16:56:57.585Z,63.05
2022-11-29T16:59:28.380Z,51.03
2022-11-29T17:01:57.640Z,50.60
2022-11-29T17:04:26.865Z,35.88
2022-11-29T17:06:56.624Z,38.00
2022-11-29T17:09:28.107Z,31.20
2022-11-29T17:12:00.614Z,36.97
2022-11-29T17:14:32.166Z,33.63
2022-11-29T17:17:03.520Z,33.30
2022-11-29T17:19:31.721Z,31.35
2022-11-29T17:22:00.033Z,34.78
2022-11-29T17:24:28.099Z,26.48
2022-11-29T17:26:56.163Z,27.20
2022-11-29T17:29:24.382Z,38.72
2022-11-29T17:31:53.553Z,38.45
2022-11-29T17:34:21.767Z,31.17
2022-11-29T17:36:49.993Z,32.78
2022-11-29T17:39:20.485Z,39.83
2022-11-29T17:41:49.244Z,38.90
2022-11-29T17:44:17.012Z,42.92
2022-11-29T17:46:45.369Z,46.17
2022-11-29T17:49:13.198Z,46.88
2022-11-29T17:51:57.975Z,47.25
2022-11-29T17:54:26.013Z,48.47
2022-11-29T17:56:54.707Z,40.97
2022-11-29T17:59:23.042Z,33.58
2022-11-29T18:01:52.048Z,27.58
2022-11-29T18:04:20.112Z,35.93
2022-11-29T18:06:50.475Z,41.15
2022-11-29T18:09:19.869Z,57.15
2022-11-29T18:11:50.188Z,50.78
2022-11-29T18:14:24.299Z,42.92
2022-11-29T18:16:53.203Z,45.10
2022-11-29T18:19:22.372Z,44.33
2022-11-29T18:21:51.043Z,46.83
2022-11-29T18:24:19.530Z,49.75
2022-11-29T18:26:48.565Z,51.55
2022-11-29T18:29:17.211Z,52.93
2022-11-29T18:31:47.580Z,57.50
2022-11-29T18:34:16.102Z,28.23
2022-11-29T18:36:48.481Z,28.38
2022-11-29T18:39:18.945Z,27.15
2022-11-29T18:41:49.226Z,26.00
2022-11-29T18:44:20.963Z,24.45
2022-11-29T18:46:49.753Z,24.63
2022-11-29T18:49:18.574Z,28.90
2022-11-29T18:51:48.311Z,33.60
2022-11-29T18:54:18.512Z,38.60
2022-11-29T18:56:47.317Z,46.05
2022-11-29T18:59:17.642Z,51.75
2022-11-29T19:01:48.756Z,58.50
2022-11-29T19:04:21.463Z,50.13
2022-11-29T19:06:49.803Z,57.83
2022-11-29T19:09:25.125Z,53.30
2022-11-29T19:11:53.673Z,55.63
2022-11-29T19:14:21.614Z,55.30
2022-11-29T19:16:50.590Z,49.22
2022-11-29T19:19:21.299Z,48.65
2022-11-29T19:21:51.785Z,48.17
2022-11-29T19:24:19.681Z,53.28
2022-11-29T19:26:49.709Z,48.03
2022-11-29T19:29:19.730Z,52.97
2022-11-29T19:31:53.060Z,56.47
2022-11-29T19:34:21.845Z,55.28
2022-11-29T19:36:53.357Z,55.15
2022-11-29T19:39:32.302Z,56.47
2022-11-29T19:42:02.099Z,51.97
2022-11-29T19:44:35.902Z,60.27
2022-11-29T19:47:17.384Z,55.67
2022-11-29T19:49:47.043Z,62.85
2022-11-29T19:52:15.330Z,52.30
2022-11-29T19:54:46.368Z,57.65
2022-11-29T19:57:15.913Z,55.97
2022-11-29T19:59:44.281Z,62.08
2022-11-29T20:02:14.641Z,71.43
2022-11-29T20:04:44.571Z,80.03
2022-11-29T20:07:14.225Z,72.55
2022-11-29T20:09:42.285Z,53.37
2022-11-29T20:12:10.461Z,60.40
2022-11-29T20:14:41.245Z,58.25
2022-11-29T20:17:11.072Z,56.15
2022-11-29T20:19:39.710Z,48.65
2022-11-29T20:22:07.713Z,50.03
2022-11-29T20:24:41.267Z,55.08
2022-11-29T20:27:13.659Z,49.90
2022-11-29T20:29:42.008Z,33.15
2022-11-29T20:32:11.600Z,36.63
2022-11-29T20:34:51.236Z,47.15
2022-11-29T20:37:49.664Z,38.22
2022-11-29T20:40:25.618Z,56.17
2022-11-29T20:43:22.964Z,52.63
2022-11-29T20:45:51.009Z,52.13
2022-11-29T20:48:23.293Z,41.73
2022-11-29T20:50:58.845Z,48.97
2022-11-29T20:53:33.655Z,42.75
2022-11-29T20:56:02.179Z,50.97
2022-11-29T20:58:30.571Z,52.97
2022-11-29T21:00:58.702Z,52.07
2022-11-29T21:03:28.614Z,59.05
2022-11-29T21:05:57.923Z,50.33
2022-11-29T21:08:27.207Z,46.13
2022-11-29T21:11:01.563Z,52.70
2022-11-29T21:13:31.386Z,50.67
2022-11-29T21:16:00.236Z,48.95
2022-11-29T21:18:29.887Z,61.13
2022-11-29T21:21:20.140Z,52.10
2022-11-29T21:24:06.047Z,54.03
2022-11-29T21:26:42.194Z,58.00
2022-11-29T21:29:11.321Z,55.22
2022-11-29T21:31:39.345Z,60.17
2022-11-29T21:34:08.907Z,65.55
2022-11-29T21:36:37.714Z,60.90
2022-11-29T21:39:12.957Z,73.30
2022-11-29T21:41:41.013Z,74.82
2022-11-29T21:44:13.975Z,65.90
2022-11-29T21:46:43.983Z,77.07
2022-11-29T21:49:12.238Z,90.30
2022-11-29T21:51:39.948Z,98.53
2022-11-29T21:54:09.116Z,82.72
2022-11-29T21:56:36.857Z,85.28
2022-11-29T21:59:06.292Z,88.68
2022-11-29T22:01:34.810Z,80.07
2022-11-29T22:04:04.138Z,72.43
2022-11-29T22:06:31.956Z,76.28
2022-11-29T22:09:00.833Z,80.03
2022-11-29T22:11:31.350Z,79.85
2022-11-29T22:14:14.097Z,75.95
2022-11-29T22:16:47.893Z,74.43
2022-11-29T22:19:24.540Z,75.35
2022-11-29T22:21:55.586Z,64.30
2022-11-29T22:24:26.088Z,57.35
2022-11-29T22:26:54.755Z,58.80
2022-11-29T22:29:23.350Z,53.67
2022-11-29T22:31:54.005Z,58.28
2022-11-29T22:34:23.645Z,55.53
2022-11-29T22:36:51.607Z,56.22
2022-11-29T22:39:20.038Z,59.08
2022-11-29T22:41:53.642Z,68.20
2022-11-29T22:44:24.256Z,61.17
2022-11-29T22:46:53.659Z,52.17
2022-11-29T22:49:21.799Z,57.53
2022-11-29T22:51:49.678Z,56.95
2022-11-29T22:54:18.310Z,61.22
2022-11-29T22:56:46.815Z,54.20
2022-11-29T22:59:15.063Z,54.08
2022-11-29T23:01:43.680Z,62.72
2022-11-29T23:04:12.724Z,57.88
2022-11-29T23:06:46.003Z,53.22
2022-11-29T23:09:22.721Z,131.93
2022-11-29T23:11:54.540Z,72.45
2022-11-29T23:14:23.964Z,66.80
2022-11-29T23:16:52.524Z,61.83
2022-11-29T23:19:21.231Z,55.40
2022-11-29T23:21:50.071Z,52.28
2022-11-29T23:24:21.246Z,51.10
2022-11-29T23:26:48.976Z,48.38
2022-11-29T23:29:19.764Z,48.55
2022-11-29T23:31:49.204Z,45.05
2022-11-29T23:34:17.909Z,40.80
2022-11-29T23:36:49.778Z,37.40
2022-11-29T23:39:21.925Z,35.85
2022-11-29T23:41:49.703Z,32.50
2022-11-29T23:44:18.168Z,31.23
2022-11-29T23:46:49.028Z,34.25
2022-11-29T23:49:17.474Z,31.20
2022-11-29T23:51:45.424Z,30.70
2022-11-29T23:54:13.867Z,35.13
2022-11-29T23:56:41.652Z,32.05
2022-11-29T23:59:09.946Z,31.95
